ADDS METAR Data INFO
IDs: Format: Raw Decoded Include TAF

Data at: 1416 UTC 12 Dec 2017

KYNG 121410Z 32018G27KT 1/2SM SN FZFG VV007 M03/M05 A2966 RMK AO2 PK WND 32027/1410 P0001 T10331050
KYNG 121351Z 31010KT 3/4SM -SN BR OVC011 M02/M04 A2966 RMK AO2 SLP055 P0000 T10221044
KYNG 121331Z 31012G18KT 3/4SM -SN BR FEW008 BKN012 OVC045 M02/M04 A2965 RMK AO2 P0000 T10221044
KYNG 121251Z 29014G21KT 1 3/4SM -SN BKN008 OVC015 M01/M04 A2963 RMK AO2 SLP045 DRSN P0000 T10111039
KYNG 121212Z 31011G21KT 2 1/2SM -SN BR OVC005 M01/M02 A2961 RMK AO2 DRSN P0000 T10061022
KYNG 121151Z 26007KT 1SM -SN BR BKN004 OVC012 M01/M02 A2960 RMK AO2 SLP034 60008 70011 4/001 T10111017 10011 21017 53017
KYNG 121051Z 28006KT 1SM -SN BR OVC003 M01/M02 A2957 RMK AO2 SLP027 P0001 T10111022
KYNG 121005Z 26006KT 1SM -SN BR OVC004 M02/M03 A2956 RMK AO2 P0001 T10171028
KYNG 120951Z 27006KT 3/4SM -SN BR OVC005 M02/M03 A2956 RMK AO2 SLP021 P0004 T10171028
KYNG 120930Z 28005KT 3/4SM -SN BR OVC007 M01/M02 A2955 RMK AO2 P0002 T10111022
KYNG 120922Z 26005KT 1 1/2SM -SN BR OVC013 M01/M02 A2955 RMK AO2 P0002 T10111022
KYNG 120851Z 28004KT 1 3/4SM -SN BR OVC016 M01/M02 A2954 RMK AO2 SLP017 60002 T10111022 56009
KYNG 120812Z 29005KT 2 1/2SM -SN OVC018 M01/M04 A2955 RMK AO2 P0000 T10061039
KYNG 120759Z 30004KT 5SM -SN OVC028 00/M03 A2955 RMK AO2 P0000 T00001033
KYNG 120751Z 00000KT 8SM -SN OVC034 00/M04 A2955 RMK AO2 SLP016 P0000 T00001039
KYNG 120651Z 08003KT 9SM -SN OVC034 01/M04 A2955 RMK AO2 SLP017 P0000 T00061044
KYNG 120551Z 13008KT 9SM -SN OVC050 00/M05 A2957 RMK AO2 SNB09 SLP024 P0000 60000 T00001050 10006 21017 56040
KYNG 120451Z 14006KT 10SM OVC055 01/M05 A2961 RMK AO2 SLP037 T00061050 400061017
KYNG 120351Z 13006KT 10SM OVC060 M01/M05 A2965 RMK AO2 SLP051 T10061050
KYNG 120251Z 16005KT 10SM SCT075 BKN150 M01/M06 A2969 RMK AO2 SLP068 60000 T10061056 58026
KYNG 120151Z 14004KT 10SM BKN090 OVC110 M01/M05 A2973 RMK AO2 SLP079 T10061050
KYNG 120051Z 14006KT 9SM OVC070 M01/M04 A2975 RMK AO2 SNE48 SLP087 BINOVC P0000 T10111039
KYNG 112351Z 12006KT 8SM -SN FEW044 OVC060 M02/M03 A2977 RMK AO2 SLP095 60003 T10171033 10000 21017 58033
KYNG 112324Z 12006KT 6SM -SN BR SCT019 BKN044 OVC110 M02/M03 A2980 RMK AO2 P0001 T10171033
KYNG 112251Z 16005KT 1 1/2SM -SN BR BKN017 OVC034 M02/M04 A2982 RMK AO2 SLP112 P0000 T10171039
KYNG 112239Z 18005KT 1 1/2SM -SN FEW019 BKN028 OVC034 M01/M04 A2983 RMK AO2 TWR VIS 2 P0000 T10111039
KYNG 112237Z 17004KT 2SM -SN FEW034 OVC060 M01/M04 A2984 RMK AO2 SFC VIS 4 P0000 T10111044
KYNG 112151Z 14003KT 9SM -SN FEW034 OVC060 M01/M04 A2984 RMK AO2 SLP118 P0000 T10111044
KYNG 112051Z 20005KT 6SM -SN OVC060 M01/M05 A2987 RMK AO2 SLP129 P0000 60000 T10111050 58017
KYNG 112031Z 19008KT 5SM -SN OVC050 M01/M05 A2988 RMK AO2 TWR VIS 3 P0000 T10111050
KYNG 112021Z 20008KT 2SM -SN OVC050 M01/M05 A2989 RMK AO2 TWR VIS 3 P0000 T10111050
KYNG 111951Z 19007KT 3SM -SN OVC050 M01/M06 A2989 RMK AO2 SFC VIS 5 SLP135 TWR VIS 3 P0000 T10061061
KYNG 111851Z 21008KT 9SM -SN SCT028 OVC060 M01/M07 A2992 RMK AO2 SNB51 SLP144 P0000 T10061072
KYNG 111751Z 21009KT 10SM SCT030 BKN050 OVC080 M01/M08 A2992 RMK AO2 SLP147 60000 T10061078 11006 21017 58029
KYNG 111725Z 22008KT 10SM BKN032 OVC080 M01/M08 A2995 RMK AO2 T10061078
KYNG 111651Z 23009KT 10SM OVC028 M01/M08 A2998 RMK AO2 SLP166 T10111078
KYNG 111551Z 24008KT 10SM OVC027 M01/M08 A3001 RMK AO2 SLP174 T10111078
KYNG 111451Z 22008KT 9SM OVC027 M02/M07 A3001 RMK AO2 SLP177 60000 T10171072 53000
KYNG 111351Z 22006KT 9SM OVC027 M02/M07 A3001 RMK AO2 SNE39 SLP177 P0000 T10171067
KYNG 111251Z 24006KT 9SM -SN OVC027 M02/M06 A3001 RMK AO2 SLP176 P0000 T10171061
KYNG 111151Z 25009KT 10SM -SN OVC027 M02/M06 A3001 RMK AO2 SNE05B48 SLP177 P0000 60000 I6000 T10171061 11011 21017 53018
KYNG 111051Z 24007KT 9SM -SN OVC025 M02/M06 A2999 RMK AO2 FZDZE21 SLP168 P0000 I1000 T10171061
KYNG 111021Z 24007KT 9SM -SN OVC028 M02/M06 A2998 RMK AO2 FZDZE21 P0000 I1000 T10171061
KYNG 110951Z 25007KT 9SM -FZDZSN OVC025 M01/M06 A2998 RMK AO2 SLP165 P0000 I1000 T10111061
KYNG 110851Z 25007KT 9SM -FZDZSN OVC021 M01/M06 A2996 RMK AO2 FZDZB23 SLP158 P0000 60000 I1000 I3000 T10111061 50007
KYNG 110823Z 25007KT 9SM -FZDZSN OVC021 M01/M07 A2996 RMK AO2 FZDZB23 P0000 I1000 T10111067
KYNG 110751Z 25010KT 9SM -SN OVC025 M01/M07 A2996 RMK AO2 SLP158 P0000 T10111067
KYNG 110719Z 26009KT 9SM -SN OVC028 M01/M07 A2995 RMK AO2 P0000 T10111067
KYNG 110651Z 25008KT 9SM -SN FEW028 OVC035 M01/M07 A2994 RMK AO2 SLP153 P0000 T10111067
KYNG 110607Z 25010G17KT 9SM -SN FEW028 OVC036 M01/M07 A2993 RMK AO2 P0000 T10111067
KYNG 110551Z 26007KT 9SM -SN BKN028 OVC038 M02/M07 A2993 RMK AO2 SLP150 P0000 60000 T10171067 11011 21022 56003
KYNG 110451Z 25006KT 7SM -SN BKN028 OVC041 M02/M07 A2993 RMK AO2 SLP150 P0000 T10171067 410061033
KYNG 110351Z 25010G18KT 8SM -SN OVC027 M01/M07 A2994 RMK AO2 SNB13 SLP151 P0000 T10111072
KYNG 110316Z 24009G17KT 10SM -SN OVC027 M02/M08 A2994 RMK AO2 SNB13 P0000 T10171078
KYNG 110251Z 23010KT 10SM OVC030 M02/M08 A2994 RMK AO2 SLP154 60000 T10171083 58002